createdAt,value
2022-08-02T00:00:56.288Z,100087.75
2022-08-02T00:01:58.065Z,100081.94
2022-08-02T00:02:59.762Z,100082.16
2022-08-02T00:04:01.466Z,100078.69
2022-08-02T00:05:03.368Z,100077.91
2022-08-02T00:06:05.227Z,100081.63
2022-08-02T00:07:06.828Z,100077.81
2022-08-02T00:08:08.440Z,100071.78
2022-08-02T00:09:10.035Z,100081.63
2022-08-02T00:10:12.835Z,100075.59
2022-08-02T00:11:14.457Z,100080.28
2022-08-02T00:12:16.202Z,100081.34
2022-08-02T00:13:17.831Z,100082.09
2022-08-02T00:14:19.445Z,100081.34
2022-08-02T00:15:20.980Z,100079.56
2022-08-02T00:16:22.588Z,100072.78
2022-08-02T00:17:39.399Z,100069.56
2022-08-02T00:18:41.394Z,100078.16
2022-08-02T00:19:43.113Z,100072.94
2022-08-02T00:20:44.723Z,100075.59
2022-08-02T00:21:46.398Z,100082.72
2022-08-02T00:22:48.022Z,100081.16
2022-08-02T00:24:27.576Z,100076.06
2022-08-02T00:25:11.283Z,100083.88
2022-08-02T00:26:12.829Z,100085.72
2022-08-02T00:27:14.400Z,100078.91
2022-08-02T00:28:16.661Z,100085.59
2022-08-02T00:29:22.308Z,100084.63
2022-08-02T00:30:23.922Z,100081.03
2022-08-02T00:31:25.498Z,100064.50
2022-08-02T00:32:27.273Z,100074.78
2022-08-02T00:34:26.992Z,100072.75
2022-08-02T00:34:50.939Z,100080.56
2022-08-02T00:35:52.790Z,100079.63
2022-08-02T00:36:54.452Z,100078.78
2022-08-02T00:37:56.077Z,100084.72
2022-08-02T00:38:57.731Z,100080.22
2022-08-02T00:39:59.394Z,100081.22
2022-08-02T00:41:01.026Z,100085.78
2022-08-02T00:42:03.617Z,100083.13
2022-08-02T00:43:08.196Z,100076.13
2022-08-02T00:44:09.780Z,100078.78
2022-08-02T00:45:14.324Z,100078.03
2022-08-02T00:46:17.334Z,100079.97
2022-08-02T00:47:19.705Z,100083.47
2022-08-02T00:48:21.557Z,100090.56
2022-08-02T00:49:23.261Z,100088.84
2022-08-02T00:50:26.634Z,100090.78
2022-08-02T00:51:28.207Z,100090.03
2022-08-02T00:52:29.960Z,100087.50
2022-08-02T00:53:32.406Z,100083.06
2022-08-02T00:54:34.155Z,100087.50
2022-08-02T00:55:37.352Z,100094.16
2022-08-02T00:56:39.014Z,100097.66
2022-08-02T00:57:51.014Z,100092.03
2022-08-02T00:58:52.745Z,100091.09
2022-08-02T00:59:54.281Z,100085.44
2022-08-02T01:01:00.943Z,100090.75
2022-08-02T01:02:02.733Z,100096.91
2022-08-02T01:03:04.342Z,100101.56
2022-08-02T01:04:13.506Z,100098.19
2022-08-02T01:05:17.733Z,100112.91
2022-08-02T01:06:21.116Z,100103.75
2022-08-02T01:07:22.835Z,100102.69
2022-08-02T01:08:29.582Z,100111.38
2022-08-02T01:09:33.650Z,100094.97
2022-08-02T01:10:35.309Z,100110.44
2022-08-02T01:11:37.055Z,100108.63
2022-08-02T01:12:39.248Z,100108.41
2022-08-02T01:13:40.987Z,100112.63
2022-08-02T01:14:46.042Z,100108.28
2022-08-02T01:15:55.317Z,100116.47
2022-08-02T01:17:02.905Z,100116.69
2022-08-02T01:18:15.465Z,100109.91
2022-08-02T01:19:35.288Z,100119.44
2022-08-02T01:20:52.110Z,100121.88
2022-08-02T01:22:03.779Z,100111.16
2022-08-02T01:23:33.094Z,100118.03
2022-08-02T01:25:16.575Z,100117.72
2022-08-02T01:26:48.910Z,100116.66
2022-08-02T01:28:27.927Z,100114.59
2022-08-02T01:29:34.703Z,100115.38
2022-08-02T01:30:40.770Z,100117.88
2022-08-02T01:31:54.498Z,100112.59
2022-08-02T01:33:00.385Z,100117.75
2022-08-02T01:34:29.366Z,100107.91
2022-08-02T01:35:50.627Z,100109.63
2022-08-02T01:37:07.378Z,100109.28
2022-08-02T01:38:18.080Z,100109.50
2022-08-02T01:39:32.144Z,100108.22
2022-08-02T01:40:37.327Z,100108.44
2022-08-02T01:41:40.228Z,100108.56
2022-08-02T01:42:47.228Z,100104.31
2022-08-02T01:43:55.444Z,100119.56
2022-08-02T01:44:59.307Z,100117.63
2022-08-02T01:46:02.824Z,100115.09
2022-08-02T01:47:17.813Z,100116.91
2022-08-02T01:48:20.403Z,100105.91
2022-08-02T01:49:23.638Z,100105.78
2022-08-02T01:50:32.603Z,100111.09
2022-08-02T01:51:55.279Z,100095.63
2022-08-02T01:53:00.135Z,100105.19
2022-08-02T01:54:02.879Z,100104.63
2022-08-02T01:55:10.033Z,100105.56
2022-08-02T01:56:21.833Z,100101.25
2022-08-02T01:57:26.238Z,100112.91
2022-08-02T01:58:32.125Z,100112.19
2022-08-02T01:59:35.386Z,100105.31
2022-08-02T02:00:40.117Z,100102.00
2022-08-02T02:01:43.305Z,100103.22
2022-08-02T02:02:48.068Z,100097.16
2022-08-02T02:03:50.347Z,100103.41
2022-08-02T02:04:52.968Z,100097.16
2022-08-02T02:05:57.450Z,100099.69
2022-08-02T02:07:00.596Z,100102.34
2022-08-02T02:08:04.470Z,100092.31
2022-08-02T02:09:06.571Z,100096.66
2022-08-02T02:10:09.823Z,100095.06
2022-08-02T02:12:09.790Z,100093.16
2022-08-02T02:12:36.538Z,100091.66
2022-08-02T02:13:42.463Z,100083.19
2022-08-02T02:14:51.984Z,100090.69
2022-08-02T02:15:56.174Z,100076.09
2022-08-02T02:17:00.215Z,100092.50
2022-08-02T02:18:12.299Z,100084.56
2022-08-02T02:19:21.014Z,100090.69
2022-08-02T02:20:23.457Z,100078.72
2022-08-02T02:21:25.050Z,100082.38
2022-08-02T02:22:26.665Z,100077.94
2022-08-02T02:23:30.168Z,100069.13
2022-08-02T02:24:37.356Z,100076.25
2022-08-02T02:25:46.890Z,100074.22
2022-08-02T02:26:52.280Z,100073.69
2022-08-02T02:28:14.035Z,100069.97
2022-08-02T02:29:18.225Z,100071.69
2022-08-02T02:30:20.154Z,100066.97
2022-08-02T02:31:21.844Z,100072.41
2022-08-02T02:32:27.556Z,100068.31
2022-08-02T02:33:31.914Z,100066.94
2022-08-02T02:34:38.095Z,100063.56
2022-08-02T02:35:41.596Z,100067.28
2022-08-02T02:36:49.715Z,100076.28
2022-08-02T02:37:54.861Z,100065.19
2022-08-02T02:39:03.168Z,100059.69
2022-08-02T02:40:05.813Z,100073.94
2022-08-02T02:41:07.969Z,100072.22
2022-08-02T02:42:14.201Z,100059.22
2022-08-02T02:43:17.369Z,100063.88
2022-08-02T02:44:20.869Z,100067.38
2022-08-02T02:45:24.085Z,100067.16
2022-08-02T02:46:29.947Z,100075.13
2022-08-02T02:47:40.246Z,100074.59
2022-08-02T02:48:43.919Z,100071.22
2022-08-02T02:49:50.158Z,100065.00
2022-08-02T02:50:52.798Z,100073.03
2022-08-02T02:51:55.836Z,100066.38
2022-08-02T02:52:58.351Z,100069.13
2022-08-02T02:54:30.940Z,100083.34
2022-08-02T02:55:23.706Z,100077.41
2022-08-02T02:56:25.891Z,100081.03
2022-08-02T02:57:27.915Z,100082.69
2022-08-02T02:58:31.311Z,100085.00
2022-08-02T02:59:34.919Z,100081.63
2022-08-02T03:00:55.311Z,100078.25
2022-08-02T03:01:58.916Z,100078.47
2022-08-02T03:03:00.730Z,100076.78
2022-08-02T03:04:07.418Z,100081.22
2022-08-02T03:05:11.115Z,100083.13
2022-08-02T03:06:15.666Z,100078.91
2022-08-02T03:07:18.034Z,100085.06
2022-08-02T03:08:19.713Z,100104.44
2022-08-02T03:09:21.442Z,100086.97
2022-08-02T03:10:23.045Z,100087.16
2022-08-02T03:11:25.197Z,100088.53
2022-08-02T03:12:31.890Z,100084.50
2022-08-02T03:13:36.370Z,100088.31
2022-08-02T03:14:43.867Z,100080.41
2022-08-02T03:15:47.829Z,100082.94
2022-08-02T03:16:54.054Z,100087.59
2022-08-02T03:17:55.749Z,100087.78
2022-08-02T03:18:58.185Z,100086.22
2022-08-02T03:19:59.772Z,100089.78
2022-08-02T03:21:07.234Z,100090.03
2022-08-02T03:22:09.097Z,100087.78
2022-08-02T03:23:10.782Z,100087.78
2022-08-02T03:24:13.274Z,100086.41
2022-08-02T03:25:15.612Z,100090.13
2022-08-02T03:26:17.276Z,100097.63
2022-08-02T03:27:18.838Z,100093.78
2022-08-02T03:28:20.558Z,100085.84
2022-08-02T03:29:22.200Z,100091.75
2022-08-02T03:30:26.880Z,100095.69
2022-08-02T03:31:28.687Z,100092.47
2022-08-02T03:32:38.059Z,100101.47
2022-08-02T03:33:40.340Z,100098.09
2022-08-02T03:34:41.980Z,100104.28
2022-08-02T03:35:45.633Z,100095.16
2022-08-02T03:36:50.457Z,100097.69
2022-08-02T03:37:55.880Z,100088.38
2022-08-02T03:38:58.607Z,100043.00
2022-08-02T03:40:01.370Z,100100.63
2022-08-02T03:41:04.078Z,100096.31
2022-08-02T03:42:06.132Z,100103.41
2022-08-02T03:43:09.339Z,100094.59
2022-08-02T03:44:12.548Z,100093.75
2022-08-02T03:45:14.735Z,100104.25
2022-08-02T03:46:19.528Z,100103.41
2022-08-02T03:47:22.587Z,100104.31
2022-08-02T03:48:34.105Z,100098.28
2022-08-02T03:49:37.076Z,100103.50
2022-08-02T03:50:39.906Z,100100.94
2022-08-02T03:51:41.646Z,100106.97
2022-08-02T03:52:44.883Z,100103.50
2022-08-02T03:53:48.318Z,100107.81
2022-08-02T03:54:50.240Z,100104.31
2022-08-02T03:55:55.772Z,100096.69
2022-08-02T03:56:57.681Z,100106.97
2022-08-02T03:57:59.436Z,100104.13
2022-08-02T03:59:13.907Z,100104.88
2022-08-02T04:00:19.884Z,100109.03
2022-08-02T04:01:21.547Z,100094.22
2022-08-02T04:02:23.153Z,100101.00
2022-08-02T04:03:25.855Z,100106.09
2022-08-02T04:04:27.410Z,100102.69
2022-08-02T04:05:29.071Z,100109.66
2022-08-02T04:06:30.725Z,100099.22
2022-08-02T04:08:32.737Z,100103.66
2022-08-02T04:08:54.526Z,100100.88
2022-08-02T04:09:56.097Z,100109.78
2022-08-02T04:11:16.219Z,100107.13
2022-08-02T04:12:17.793Z,100105.25
2022-08-02T04:13:31.269Z,100105.91
2022-08-02T04:14:36.090Z,100103.25
2022-08-02T04:15:39.094Z,100105.81
2022-08-02T04:16:44.821Z,100117.78
2022-08-02T04:17:52.798Z,100109.53
2022-08-02T04:18:56.908Z,100112.09
2022-08-02T04:20:06.990Z,100089.53
2022-08-02T04:21:13.688Z,100105.72
2022-08-02T04:22:44.628Z,100101.09
2022-08-02T04:23:48.853Z,100103.63
2022-08-02T04:24:54.576Z,100110.63
2022-08-02T04:25:57.741Z,100096.84
2022-08-02T04:27:06.703Z,100110.50
2022-08-02T04:28:27.730Z,100106.69
2022-08-02T04:29:33.009Z,100112.84
2022-08-02T04:30:35.116Z,100106.63
2022-08-02T04:31:37.551Z,100111.06
2022-08-02T04:32:40.031Z,100116.03
2022-08-02T04:33:42.598Z,100118.50
2022-08-02T04:35:05.056Z,100115.59
2022-08-02T04:36:07.920Z,100105.78
2022-08-02T04:37:12.729Z,100109.91
2022-08-02T04:38:15.849Z,100108.00
2022-08-02T04:39:19.193Z,100061.28
2022-08-02T04:40:20.758Z,100110.03
2022-08-02T04:41:22.520Z,100116.59
2022-08-02T04:42:25.736Z,100116.41
2022-08-02T04:43:28.592Z,100107.28
2022-08-02T04:44:30.178Z,100114.91
2022-08-02T04:45:32.535Z,100115.31
2022-08-02T04:46:36.264Z,100111.50
2022-08-02T04:48:03.435Z,100110.38
2022-08-02T04:48:59.450Z,100108.97
2022-08-02T04:50:01.128Z,100108.44
2022-08-02T04:51:02.668Z,100108.03
2022-08-02T04:52:04.457Z,100108.66
2022-08-02T04:53:06.050Z,100107.59
2022-08-02T04:54:10.243Z,100110.97
2022-08-02T04:55:12.012Z,100108.00
2022-08-02T04:56:16.720Z,100106.94
2022-08-02T04:57:36.716Z,100111.06
2022-08-02T04:58:40.405Z,100110.09
2022-08-02T04:59:42.345Z,100114.22
2022-08-02T05:00:44.474Z,100109.66
2022-08-02T05:01:46.365Z,100104.03
2022-08-02T05:02:48.558Z,100111.56
2022-08-02T05:03:50.172Z,100109.31
2022-08-02T05:04:51.828Z,100109.56
2022-08-02T05:05:53.442Z,100115.28
2022-08-02T05:06:55.025Z,100112.91
2022-08-02T05:07:56.626Z,100108.91
2022-08-02T05:08:58.534Z,100111.94
2022-08-02T05:10:00.394Z,100114.75
2022-08-02T05:11:04.040Z,100110.78
2022-08-02T05:12:06.438Z,100104.31
2022-08-02T05:13:08.025Z,100111.94
2022-08-02T05:14:09.645Z,100105.19
2022-08-02T05:15:18.274Z,100106.66
2022-08-02T05:16:20.031Z,100102.56
2022-08-02T05:17:32.850Z,100102.09
2022-08-02T05:18:34.650Z,100099.81
2022-08-02T05:19:36.857Z,100102.13
2022-08-02T05:20:38.397Z,100103.25
2022-08-02T05:21:39.962Z,100107.22
2022-08-02T05:22:42.141Z,100083.16
2022-08-02T05:23:43.871Z,100100.50
2022-08-02T05:24:45.457Z,100099.03
2022-08-02T05:25:47.141Z,100096.59
2022-08-02T05:26:48.792Z,100099.16
2022-08-02T05:27:50.320Z,100097.22
2022-08-02T05:28:51.893Z,100099.28
2022-08-02T05:29:57.100Z,100093.38
2022-08-02T05:30:58.828Z,100098.13
2022-08-02T05:32:00.439Z,100096.16
2022-08-02T05:33:02.017Z,100100.03
2022-08-02T05:34:04.557Z,100101.13
2022-08-02T05:35:08.288Z,100102.31
2022-08-02T05:36:09.948Z,100097.75
2022-08-02T05:37:11.558Z,100094.72
2022-08-02T05:38:15.107Z,100093.38
2022-08-02T05:39:19.038Z,100098.06
2022-08-02T05:40:25.469Z,100100.22
2022-08-02T05:41:27.717Z,100091.66
2022-08-02T05:42:32.304Z,100096.09
2022-08-02T05:43:34.055Z,100086.53
2022-08-02T05:44:35.626Z,100092.78
2022-08-02T05:45:37.490Z,100091.31
2022-08-02T05:46:39.028Z,100092.34
2022-08-02T05:47:40.810Z,100098.84
2022-08-02T05:48:42.403Z,100091.16
2022-08-02T05:49:44.034Z,100097.19
2022-08-02T05:50:49.974Z,100096.09
2022-08-02T05:52:19.790Z,100098.03
2022-08-02T05:53:51.061Z,100099.50
2022-08-02T05:54:55.626Z,100102.66
2022-08-02T05:56:37.701Z,100087.34
2022-08-02T05:57:56.115Z,100109.19
2022-08-02T05:59:09.756Z,100106.50
2022-08-02T06:00:14.197Z,100109.38
2022-08-02T06:01:25.191Z,100108.47
2022-08-02T06:02:39.131Z,100114.25
2022-08-02T06:03:51.514Z,100109.94
2022-08-02T06:05:04.805Z,100118.41
2022-08-02T06:06:11.238Z,100120.25
2022-08-02T06:07:14.552Z,100112.34
2022-08-02T06:08:16.211Z,100120.56
2022-08-02T06:09:23.228Z,100117.75
2022-08-02T06:10:30.080Z,100120.97
2022-08-02T06:11:42.931Z,100119.00
2022-08-02T06:13:04.478Z,100112.88
2022-08-02T06:14:07.233Z,100121.16
2022-08-02T06:15:09.222Z,100096.13
2022-08-02T06:16:14.146Z,100114.09
2022-08-02T06:17:17.171Z,100108.19
2022-08-02T06:18:20.218Z,100114.50
2022-08-02T06:19:31.622Z,100111.34
2022-08-02T06:20:50.550Z,100108.97
2022-08-02T06:22:34.022Z,100117.28
2022-08-02T06:23:14.542Z,100118.88
2022-08-02T06:24:19.726Z,100119.88
2022-08-02T06:25:50.261Z,100117.25
2022-08-02T06:26:44.629Z,100117.94
2022-08-02T06:27:48.975Z,100117.09
2022-08-02T06:28:53.288Z,100113.75
2022-08-02T06:29:55.279Z,100116.44
2022-08-02T06:30:57.606Z,100117.88
2022-08-02T06:31:59.698Z,100124.66
2022-08-02T06:33:01.878Z,100111.97
2022-08-02T06:34:03.413Z,100121.97
2022-08-02T06:35:05.829Z,100114.41
2022-08-02T06:36:19.629Z,100120.97
2022-08-02T06:37:41.415Z,100126.06
2022-08-02T06:39:14.490Z,100124.34
2022-08-02T06:40:44.114Z,100120.69
2022-08-02T06:41:49.286Z,100128.59
2022-08-02T06:43:10.816Z,100123.38
2022-08-02T06:44:45.859Z,100111.44
2022-08-02T06:45:35.232Z,100123.81
2022-08-02T06:47:11.002Z,100120.13
2022-08-02T06:47:59.005Z,100123.41
2022-08-02T06:49:01.818Z,100119.16
2022-08-02T06:50:04.269Z,100117.91
2022-08-02T06:51:06.093Z,100128.69
2022-08-02T06:52:07.820Z,100126.56
2022-08-02T06:53:10.451Z,100121.03
2022-08-02T06:54:12.061Z,100126.38
2022-08-02T06:55:13.668Z,100126.47
2022-08-02T06:56:15.745Z,100125.34
2022-08-02T06:57:17.383Z,100124.31
2022-08-02T06:58:19.050Z,100128.28
2022-08-02T06:59:20.551Z,100124.16
2022-08-02T07:00:22.136Z,100123.13
2022-08-02T07:01:23.917Z,100121.66
2022-08-02T07:02:25.629Z,100125.66
2022-08-02T07:03:27.399Z,100124.34
2022-08-02T07:04:29.567Z,100122.31
2022-08-02T07:05:31.216Z,100118.88
2022-08-02T07:06:32.812Z,100125.66
2022-08-02T07:07:34.882Z,100112.19
2022-08-02T07:08:38.514Z,100121.94
2022-08-02T07:09:40.361Z,100125.78
2022-08-02T07:11:02.615Z,100121.38
2022-08-02T07:12:04.622Z,100123.91
2022-08-02T07:13:06.174Z,100119.53
2022-08-02T07:14:07.719Z,100121.81
2022-08-02T07:15:10.235Z,100120.44
2022-08-02T07:16:11.837Z,100125.31
2022-08-02T07:17:13.750Z,100133.31
2022-08-02T07:18:15.826Z,100134.53
2022-08-02T07:19:17.478Z,100124.28
2022-08-02T07:20:19.175Z,100133.88
2022-08-02T07:21:55.990Z,100135.22
2022-08-02T07:22:42.404Z,100134.53
2022-08-02T07:23:43.981Z,100134.19
2022-08-02T07:24:45.781Z,100137.38
2022-08-02T07:26:02.290Z,100134.63
2022-08-02T07:27:11.686Z,100132.84
2022-08-02T07:28:22.274Z,100119.66
2022-08-02T07:29:26.634Z,100126.72
2022-08-02T07:30:34.393Z,100128.91
2022-08-02T07:31:36.136Z,100122.47
2022-08-02T07:32:38.306Z,100135.28
2022-08-02T07:33:42.351Z,100130.53
2022-08-02T07:34:50.899Z,100132.91
2022-08-02T07:35:57.338Z,100133.88
2022-08-02T07:36:59.001Z,100132.69
2022-08-02T07:38:02.848Z,100127.66
2022-08-02T07:39:06.175Z,100131.91
2022-08-02T07:40:14.026Z,100134.50
2022-08-02T07:41:16.997Z,100126.56
2022-08-02T07:42:18.658Z,100131.44
2022-08-02T07:43:22.953Z,100136.81
2022-08-02T07:44:24.603Z,100135.63
2022-08-02T07:45:28.669Z,100134.88
2022-08-02T07:46:30.316Z,100112.66
2022-08-02T07:47:31.884Z,100133.06
2022-08-02T07:48:33.554Z,100128.00
2022-08-02T07:49:35.192Z,100130.34
2022-08-02T07:50:36.926Z,100131.16
2022-08-02T07:51:38.587Z,100126.53
2022-08-02T07:52:40.760Z,100130.69
2022-08-02T07:53:51.200Z,100123.00
2022-08-02T07:55:05.022Z,100127.22
2022-08-02T07:56:06.665Z,100123.25
2022-08-02T07:57:08.301Z,100121.97
2022-08-02T07:58:12.973Z,100111.16
2022-08-02T07:59:15.388Z,100130.59
2022-08-02T08:00:17.664Z,100117.41
2022-08-02T08:01:19.605Z,100128.28
2022-08-02T08:02:21.277Z,100124.53
2022-08-02T08:03:23.016Z,100125.09
2022-08-02T08:04:24.978Z,100127.38
2022-08-02T08:05:26.651Z,100122.19
2022-08-02T08:06:29.218Z,100125.09
2022-08-02T08:07:31.119Z,100122.06
2022-08-02T08:08:35.037Z,100118.00
2022-08-02T08:09:42.520Z,100116.34
2022-08-02T08:10:44.158Z,100118.66
2022-08-02T08:11:45.917Z,100114.72
2022-08-02T08:12:47.470Z,100109.88
2022-08-02T08:13:49.075Z,100110.34
2022-08-02T08:14:50.781Z,100115.72
2022-08-02T08:15:52.785Z,100112.91
2022-08-02T08:16:54.414Z,100111.53
2022-08-02T08:17:56.095Z,100121.31
2022-08-02T08:18:57.681Z,100118.22
2022-08-02T08:19:59.306Z,100121.88
2022-08-02T08:21:00.951Z,100119.47
2022-08-02T08:22:06.061Z,100113.22
2022-08-02T08:23:07.641Z,100113.16
2022-08-02T08:24:09.278Z,100114.88
2022-08-02T08:25:10.914Z,100116.69
2022-08-02T08:26:15.795Z,100106.66
2022-08-02T08:27:18.588Z,100103.81
2022-08-02T08:28:20.273Z,100109.31
2022-08-02T08:29:22.482Z,100108.84
2022-08-02T08:30:24.416Z,100106.13
2022-08-02T08:31:26.167Z,100112.78
2022-08-02T08:32:28.833Z,100105.75
2022-08-02T08:33:30.457Z,100104.75
2022-08-02T08:34:32.566Z,100105.16
2022-08-02T08:35:34.747Z,100128.63
2022-08-02T08:36:36.486Z,100105.84
2022-08-02T08:37:39.218Z,100102.53
2022-08-02T08:38:40.739Z,100099.69
2022-08-02T08:39:56.312Z,100095.06
2022-08-02T08:40:59.375Z,100094.88
2022-08-02T08:42:01.314Z,100097.25
2022-08-02T08:43:03.930Z,100099.75
2022-08-02T08:44:05.609Z,100095.94
2022-08-02T08:45:09.032Z,100095.78
2022-08-02T08:46:12.381Z,100093.03
2022-08-02T08:47:14.012Z,100096.03
2022-08-02T08:48:30.264Z,100100.47
2022-08-02T08:49:40.143Z,100088.50
2022-08-02T08:51:04.504Z,100098.63
2022-08-02T08:52:06.604Z,100096.56
2022-08-02T08:53:12.352Z,100094.25
2022-08-02T08:54:17.271Z,100101.66
2022-08-02T08:55:24.738Z,100100.16
2022-08-02T08:56:32.051Z,100097.50
2022-08-02T08:57:37.144Z,100096.63
2022-08-02T08:58:39.704Z,100101.44
2022-08-02T08:59:41.301Z,100095.41
2022-08-02T09:00:43.156Z,100094.72
2022-08-02T09:01:49.971Z,100085.50
2022-08-02T09:02:52.506Z,100095.78
2022-08-02T09:03:54.143Z,100087.75
2022-08-02T09:04:56.474Z,100095.78
2022-08-02T09:05:58.935Z,100089.88
2022-08-02T09:07:00.487Z,100086.84
2022-08-02T09:08:02.082Z,100086.81
2022-08-02T09:09:03.716Z,100084.28
2022-08-02T09:10:40.672Z,100082.22
2022-08-02T09:11:42.267Z,100070.88
2022-08-02T09:12:43.833Z,100074.41
2022-08-02T09:13:55.002Z,100073.06
2022-08-02T09:14:56.617Z,100071.63
2022-08-02T09:16:11.498Z,100063.13
2022-08-02T09:17:15.162Z,100057.38
2022-08-02T09:18:16.716Z,100063.81
2022-08-02T09:19:25.452Z,100064.94
2022-08-02T09:20:30.648Z,100071.47
2022-08-02T09:21:37.949Z,100067.63
2022-08-02T09:22:39.526Z,100065.06
2022-08-02T09:23:43.272Z,100064.69
2022-08-02T09:24:50.005Z,100065.44
2022-08-02T09:26:07.495Z,100060.78
2022-08-02T09:27:21.365Z,100066.09
2022-08-02T09:28:27.609Z,100062.97
2022-08-02T09:29:29.220Z,100070.97
2022-08-02T09:30:31.658Z,100066.78
2022-08-02T09:31:34.380Z,100077.06
2022-08-02T09:32:46.474Z,100078.31
2022-08-02T09:33:56.447Z,100074.84
2022-08-02T09:34:58.033Z,100071.22
2022-08-02T09:36:08.118Z,100076.69
2022-08-02T09:37:23.243Z,100067.66
2022-08-02T09:38:26.344Z,100073.00
2022-08-02T09:39:47.480Z,100065.13
2022-08-02T09:40:49.645Z,100063.28
2022-08-02T09:41:51.337Z,100069.47
2022-08-02T09:42:59.385Z,100067.88
2022-08-02T09:44:06.162Z,100059.91
2022-08-02T09:45:10.245Z,100068.56
2022-08-02T09:46:16.277Z,100068.91
2022-08-02T09:47:18.095Z,100069.28
2022-08-02T09:48:19.683Z,100068.09
2022-08-02T09:49:21.824Z,100066.25
2022-08-02T09:50:23.470Z,100066.75
2022-08-02T09:51:57.755Z,100067.13
2022-08-02T09:52:59.558Z,100063.88
2022-08-02T09:54:08.926Z,100056.78
2022-08-02T09:55:11.883Z,100060.56
2022-08-02T09:56:35.338Z,100058.97
2022-08-02T09:57:38.537Z,100058.28
2022-08-02T09:58:40.409Z,100058.66
2022-08-02T09:59:52.514Z,100059.63
2022-08-02T10:01:01.561Z,100059.16
2022-08-02T10:02:17.027Z,100055.25
2022-08-02T10:03:22.625Z,100062.63
2022-08-02T10:04:28.524Z,100059.66
2022-08-02T10:05:32.178Z,100059.22
2022-08-02T10:06:46.370Z,100058.53
2022-08-02T10:07:48.066Z,100052.88
2022-08-02T10:08:50.612Z,100059.81
2022-08-02T10:09:52.292Z,100057.28
2022-08-02T10:11:00.527Z,100055.88
2022-08-02T10:12:03.469Z,100052.28
2022-08-02T10:13:10.734Z,100043.50
2022-08-02T10:14:12.819Z,100051.13
2022-08-02T10:15:16.344Z,100040.78
2022-08-02T10:16:21.901Z,100048.25
2022-08-02T10:17:25.270Z,100047.22
2022-08-02T10:18:38.709Z,100046.97
2022-08-02T10:20:02.754Z,100041.53
2022-08-02T10:21:06.530Z,100047.03
2022-08-02T10:22:14.662Z,100049.91
2022-08-02T10:23:17.351Z,100051.50
2022-08-02T10:24:22.527Z,100049.53
2022-08-02T10:25:24.665Z,100055.63
2022-08-02T10:26:26.525Z,100044.38
2022-08-02T10:27:43.207Z,100049.56
2022-08-02T10:28:53.966Z,100039.72
2022-08-02T10:29:57.821Z,100040.75
2022-08-02T10:31:05.588Z,100043.06
2022-08-02T10:32:15.465Z,100030.31
2022-08-02T10:33:19.280Z,100042.03
2022-08-02T10:34:24.832Z,100034.50
2022-08-02T10:35:37.550Z,100036.22
2022-08-02T10:36:42.141Z,100033.56
2022-08-02T10:37:46.086Z,100028.63
2022-08-02T10:38:47.904Z,100030.59
2022-08-02T10:39:55.997Z,100031.69
2022-08-02T10:40:57.575Z,100025.94
2022-08-02T10:41:59.180Z,100027.06
2022-08-02T10:43:01.410Z,100021.44
2022-08-02T10:44:03.355Z,100030.69
2022-08-02T10:45:14.985Z,100020.78
2022-08-02T10:46:35.798Z,100027.00
2022-08-02T10:47:37.566Z,100031.72
2022-08-02T10:49:18.467Z,100013.41
2022-08-02T10:50:53.006Z,100022.66
2022-08-02T10:51:54.540Z,100021.91
2022-08-02T10:53:32.480Z,100018.91
2022-08-02T10:54:42.694Z,100017.88
2022-08-02T10:55:45.998Z,100018.28
2022-08-02T10:56:50.198Z,100012.34
2022-08-02T10:58:19.278Z,100024.06
2022-08-02T10:59:24.185Z,100010.34
2022-08-02T11:00:27.476Z,100006.56
2022-08-02T11:01:38.953Z,100010.25
2022-08-02T11:02:43.990Z,100031.69
2022-08-02T11:03:45.557Z,100008.09
2022-08-02T11:04:47.064Z,100007.28
2022-08-02T11:06:05.410Z,100004.00
2022-08-02T11:07:20.049Z,100007.75
2022-08-02T11:08:23.026Z,100001.91
2022-08-02T11:09:32.718Z,100007.13
2022-08-02T11:10:39.936Z,100012.22
2022-08-02T11:12:09.553Z,100014.59
2022-08-02T11:13:16.765Z,100001.06
2022-08-02T11:14:18.654Z,100007.91
2022-08-02T11:15:20.372Z,100007.66
2022-08-02T11:16:21.931Z,100006.91
2022-08-02T11:17:23.756Z,100007.03
2022-08-02T11:18:51.460Z,100003.31
2022-08-02T11:20:11.482Z,100002.69
2022-08-02T11:21:23.709Z,100001.97
2022-08-02T11:22:25.842Z,99999.03
2022-08-02T11:23:44.170Z,100007.16
2022-08-02T11:24:47.479Z,100004.16
2022-08-02T11:26:10.851Z,99983.16
2022-08-02T11:27:21.965Z,99995.59
2022-08-02T11:28:25.631Z,99987.47
2022-08-02T11:29:40.107Z,99990.53
2022-08-02T11:30:42.072Z,99995.38
2022-08-02T11:31:45.555Z,99990.81
2022-08-02T11:32:48.245Z,99988.50
2022-08-02T11:33:50.999Z,99992.22
2022-08-02T11:34:54.163Z,99987.88
2022-08-02T11:36:01.844Z,99981.94
2022-08-02T11:37:03.582Z,99871.97
2022-08-02T11:38:21.205Z,99978.28
2022-08-02T11:39:23.572Z,99980.34
2022-08-02T11:40:37.568Z,99975.66
2022-08-02T11:41:46.901Z,99976.66
2022-08-02T11:42:53.634Z,99983.41
2022-08-02T11:43:56.034Z,99971.53
2022-08-02T11:44:57.664Z,99988.03
2022-08-02T11:46:12.256Z,99982.91
2022-08-02T11:47:14.178Z,99980.13
2022-08-02T11:48:30.102Z,99980.25
2022-08-02T11:49:31.918Z,99986.09
2022-08-02T11:50:33.609Z,99977.28
2022-08-02T11:51:35.159Z,99980.22
2022-08-02T11:52:38.535Z,99981.63
2022-08-02T11:53:53.477Z,99978.88
2022-08-02T11:54:55.043Z,99984.16
2022-08-02T11:55:57.207Z,99977.16
2022-08-02T11:57:20.593Z,99980.63
2022-08-02T11:58:22.699Z,99981.16
2022-08-02T11:59:24.251Z,99976.88
2022-08-02T12:00:30.533Z,99974.19
2022-08-02T12:01:33.687Z,99978.41
2022-08-02T12:02:48.648Z,99979.75
2022-08-02T12:03:50.595Z,99971.03
2022-08-02T12:05:00.726Z,99970.28
2022-08-02T12:06:06.801Z,99976.94
2022-08-02T12:07:12.708Z,99973.03
2022-08-02T12:08:17.060Z,99965.56
2022-08-02T12:09:20.818Z,99965.13
2022-08-02T12:10:24.277Z,99969.97
2022-08-02T12:11:25.915Z,99978.38
2022-08-02T12:12:58.934Z,99967.16
2022-08-02T12:14:00.998Z,99977.25
2022-08-02T12:15:02.743Z,99975.13
2022-08-02T12:16:30.764Z,99970.31
2022-08-02T12:17:51.077Z,99972.19
2022-08-02T12:19:11.696Z,99968.56
2022-08-02T12:20:17.388Z,99965.56
2022-08-02T12:21:25.008Z,99963.00
2022-08-02T12:22:27.906Z,99972.19
2022-08-02T12:23:30.222Z,99969.06
2022-08-02T12:24:31.836Z,99965.41
2022-08-02T12:25:35.537Z,99962.66
2022-08-02T12:26:45.268Z,99966.41
2022-08-02T12:27:46.956Z,99961.53
2022-08-02T12:28:59.731Z,99970.47
2022-08-02T12:30:13.247Z,99963.94
2022-08-02T12:31:14.849Z,99961.19
2022-08-02T12:32:24.615Z,99964.06
2022-08-02T12:33:29.179Z,99961.88
2022-08-02T12:34:32.770Z,99966.09
2022-08-02T12:35:34.450Z,99960.44
2022-08-02T12:36:36.115Z,99961.75